TAF and METAR

METAR for Yangon International Airport

VYYY 292300Z 24005KT 7000 BKN015 FEW020CB OVC100 26/23 Q1009
Report created 30. mai 01:00
wind 5 knots from WSW (240°) visibility 7000 meters broken clouds (~75% cover) at 1500 feet some clouds (~25% cover) at 2000 feet of type cumulonimbus overcast at 10000 feet Temperature 26° with dewpoint at 23° (Humidity 83.60%) Pressure 1009 hPa

TAF for Yangon International Airport

TAF VYYY 291700Z 2918/3018 24008KT 7000 BKN015 FEW020CB BKN110 TEMPO 3000/3005 14006KT 6000 SCT017 FEW020CB TEMPO3006/3012 24008G18KT 140V290 4000 -TSRA
Report created 29. mai 19:00

between 29. mai 20:00 - 30. mai 20:00

wind 8 knots from WSW (240°) visibility 7000 meters broken clouds (~75% cover) at 1500 feet some clouds (~25% cover) at 2000 feet of type cumulonimbus broken clouds (~75% cover) at 11000 feet

temporarily between 30. mai 02:00 - 30. mai 07:00

wind 6 knots from SE (140°) visibility 6000 meters scattered clouds (~50% cover) at 1700 feet some clouds (~25% cover) at 2000 feet of type cumulonimbus